sensor_id;sensor_type;location;lat;lon;timestamp;temperature;humidity
7606;DHT22;3844;53.360;9.738;2022-12-13T00:00:38;-8.60;95.70
7606;DHT22;3844;53.360;9.738;2022-12-13T00:02:40;-8.60;95.70
7606;DHT22;3844;53.360;9.738;2022-12-13T00:04:40;-8.60;95.70
7606;DHT22;3844;53.360;9.738;2022-12-13T00:06:41;-8.60;95.70
7606;DHT22;3844;53.360;9.738;2022-12-13T00:08:42;-8.70;95.70
7606;DHT22;3844;53.360;9.738;2022-12-13T00:10:43;-8.60;95.70
7606;DHT22;3844;53.360;9.738;2022-12-13T00:12:43;-8.70;95.70
7606;DHT22;3844;53.360;9.738;2022-12-13T00:14:44;-8.70;95.70
7606;DHT22;3844;53.360;9.738;2022-12-13T00:16:46;-8.70;95.70
7606;DHT22;3844;53.360;9.738;2022-12-13T00:18:52;-8.70;95.70
7606;DHT22;3844;53.360;9.738;2022-12-13T00:20:54;-8.70;95.70
7606;DHT22;3844;53.360;9.738;2022-12-13T00:22:55;-8.70;95.70
7606;DHT22;3844;53.360;9.738;2022-12-13T00:24:56;-8.80;95.70
7606;DHT22;3844;53.360;9.738;2022-12-13T00:26:57;-8.80;95.70
7606;DHT22;3844;53.360;9.738;2022-12-13T00:28:59;-8.80;95.70
7606;DHT22;3844;53.360;9.738;2022-12-13T00:31:01;-8.80;95.70
7606;DHT22;3844;53.360;9.738;2022-12-13T00:33:01;-8.80;95.70
7606;DHT22;3844;53.360;9.738;2022-12-13T00:35:02;-8.80;95.70
7606;DHT22;3844;53.360;9.738;2022-12-13T00:37:03;-8.80;95.70
7606;DHT22;3844;53.360;9.738;2022-12-13T00:39:03;-8.90;95.70
7606;DHT22;3844;53.360;9.738;2022-12-13T00:41:15;-8.90;95.70
7606;DHT22;3844;53.360;9.738;2022-12-13T00:43:17;-8.90;95.70
7606;DHT22;3844;53.360;9.738;2022-12-13T00:45:17;-8.90;95.70
7606;DHT22;3844;53.360;9.738;2022-12-13T00:47:18;-8.90;95.70
7606;DHT22;3844;53.360;9.738;2022-12-13T00:49:20;-8.90;95.70
7606;DHT22;3844;53.360;9.738;2022-12-13T00:51:21;-8.90;95.70
7606;DHT22;3844;53.360;9.738;2022-12-13T00:53:22;-8.80;95.70
7606;DHT22;3844;53.360;9.738;2022-12-13T00:55:23;-8.80;95.70
7606;DHT22;3844;53.360;9.738;2022-12-13T00:57:23;-8.80;95.70
7606;DHT22;3844;53.360;9.738;2022-12-13T00:59:24;-8.80;95.70
7606;DHT22;3844;53.360;9.738;2022-12-13T01:01:27;-8.80;95.70
7606;DHT22;3844;53.360;9.738;2022-12-13T01:03:28;-8.80;95.70
7606;DHT22;3844;53.360;9.738;2022-12-13T01:05:29;-8.80;95.70
7606;DHT22;3844;53.360;9.738;2022-12-13T01:07:29;-8.70;95.70
7606;DHT22;3844;53.360;9.738;2022-12-13T01:09:30;-8.70;95.70
7606;DHT22;3844;53.360;9.738;2022-12-13T01:11:33;-8.60;95.70
7606;DHT22;3844;53.360;9.738;2022-12-13T01:13:34;-8.60;95.70
7606;DHT22;3844;53.360;9.738;2022-12-13T01:15:39;-8.60;95.70
7606;DHT22;3844;53.360;9.738;2022-12-13T01:17:40;-8.50;95.70
7606;DHT22;3844;53.360;9.738;2022-12-13T01:19:41;-8.60;95.70
7606;DHT22;3844;53.360;9.738;2022-12-13T01:23:43;-8.50;95.70
7606;DHT22;3844;53.360;9.738;2022-12-13T01:25:44;-8.50;95.70
7606;DHT22;3844;53.360;9.738;2022-12-13T01:27:45;-8.50;95.70
7606;DHT22;3844;53.360;9.738;2022-12-13T01:29:45;-8.50;95.70
7606;DHT22;3844;53.360;9.738;2022-12-13T01:31:47;-8.50;95.70
7606;DHT22;3844;53.360;9.738;2022-12-13T01:33:48;-8.50;95.70
7606;DHT22;3844;53.360;9.738;2022-12-13T01:35:49;-8.50;95.70
7606;DHT22;3844;53.360;9.738;2022-12-13T01:37:50;-8.50;95.70
7606;DHT22;3844;53.360;9.738;2022-12-13T01:39:51;-8.50;95.70
7606;DHT22;3844;53.360;9.738;2022-12-13T01:41:53;-8.60;95.70
7606;DHT22;3844;53.360;9.738;2022-12-13T01:44:00;-8.60;95.70
7606;DHT22;3844;53.360;9.738;2022-12-13T01:46:02;-8.50;95.70
7606;DHT22;3844;53.360;9.738;2022-12-13T01:48:07;-8.60;95.70
7606;DHT22;3844;53.360;9.738;2022-12-13T01:50:27;-8.50;95.70
7606;DHT22;3844;53.360;9.738;2022-12-13T01:52:31;-8.50;95.70
7606;DHT22;3844;53.360;9.738;2022-12-13T01:54:39;-8.50;95.70
7606;DHT22;3844;53.360;9.738;2022-12-13T01:56:43;-8.50;95.70
7606;DHT22;3844;53.360;9.738;2022-12-13T01:58:47;-8.50;95.70
7606;DHT22;3844;53.360;9.738;2022-12-13T02:00:49;-8.50;95.70
7606;DHT22;3844;53.360;9.738;2022-12-13T02:02:52;-8.50;95.70
7606;DHT22;3844;53.360;9.738;2022-12-13T02:04:54;-8.50;95.70
7606;DHT22;3844;53.360;9.738;2022-12-13T02:06:56;-8.50;95.70
7606;DHT22;3844;53.360;9.738;2022-12-13T02:08:57;-8.50;95.70
7606;DHT22;3844;53.360;9.738;2022-12-13T02:10:58;-8.50;95.70
7606;DHT22;3844;53.360;9.738;2022-12-13T02:12:59;-8.50;95.70
7606;DHT22;3844;53.360;9.738;2022-12-13T02:15:04;-8.50;95.70
7606;DHT22;3844;53.360;9.738;2022-12-13T02:34:04;-8.70;95.70
7606;DHT22;3844;53.360;9.738;2022-12-13T02:36:07;-8.70;95.70
7606;DHT22;3844;53.360;9.738;2022-12-13T02:40:39;-8.70;95.70
7606;DHT22;3844;53.360;9.738;2022-12-13T02:47:11;-8.60;95.70
7606;DHT22;3844;53.360;9.738;2022-12-13T02:49:13;-8.60;95.70
7606;DHT22;3844;53.360;9.738;2022-12-13T02:51:16;-8.60;95.70
7606;DHT22;3844;53.360;9.738;2022-12-13T02:53:19;-8.50;95.70
7606;DHT22;3844;53.360;9.738;2022-12-13T02:55:22;-8.50;95.70
7606;DHT22;3844;53.360;9.738;2022-12-13T02:57:35;-8.50;95.70
7606;DHT22;3844;53.360;9.738;2022-12-13T02:59:36;-8.40;95.70
7606;DHT22;3844;53.360;9.738;2022-12-13T03:14:19;-7.90;95.70
7606;DHT22;3844;53.360;9.738;2022-12-13T03:16:32;-7.80;95.70
7606;DHT22;3844;53.360;9.738;2022-12-13T03:18:35;-7.80;95.70
7606;DHT22;3844;53.360;9.738;2022-12-13T03:20:37;-7.70;95.70
7606;DHT22;3844;53.360;9.738;2022-12-13T03:22:37;-7.60;95.70
7606;DHT22;3844;53.360;9.738;2022-12-13T03:26:40;-7.40;95.70
7606;DHT22;3844;53.360;9.738;2022-12-13T03:28:41;-7.40;95.70
7606;DHT22;3844;53.360;9.738;2022-12-13T03:30:41;-7.30;95.70
7606;DHT22;3844;53.360;9.738;2022-12-13T03:32:42;-7.20;95.70
7606;DHT22;3844;53.360;9.738;2022-12-13T03:34:46;-7.20;95.70
7606;DHT22;3844;53.360;9.738;2022-12-13T03:36:47;-7.10;95.70
7606;DHT22;3844;53.360;9.738;2022-12-13T03:38:51;-7.00;95.70
7606;DHT22;3844;53.360;9.738;2022-12-13T03:40:56;-7.00;95.70
7606;DHT22;3844;53.360;9.738;2022-12-13T03:42:57;-6.90;95.70
7606;DHT22;3844;53.360;9.738;2022-12-13T03:44:58;-6.90;95.70
7606;DHT22;3844;53.360;9.738;2022-12-13T03:47:08;-6.80;95.70
7606;DHT22;3844;53.360;9.738;2022-12-13T03:49:09;-6.80;95.70
7606;DHT22;3844;53.360;9.738;2022-12-13T03:51:09;-6.80;95.70
7606;DHT22;3844;53.360;9.738;2022-12-13T03:55:11;-6.70;95.70
7606;DHT22;3844;53.360;9.738;2022-12-13T03:57:12;-6.70;95.70
7606;DHT22;3844;53.360;9.738;2022-12-13T03:59:15;-6.70;95.70
7606;DHT22;3844;53.360;9.738;2022-12-13T04:01:16;-6.70;95.70
7606;DHT22;3844;53.360;9.738;2022-12-13T04:03:17;-6.70;95.70
7606;DHT22;3844;53.360;9.738;2022-12-13T04:05:17;-6.70;95.70
7606;DHT22;3844;53.360;9.738;2022-12-13T04:07:18;-6.70;95.70
7606;DHT22;3844;53.360;9.738;2022-12-13T04:09:21;-6.70;95.70
7606;DHT22;3844;53.360;9.738;2022-12-13T04:11:22;-6.70;95.70
7606;DHT22;3844;53.360;9.738;2022-12-13T04:13:42;-6.70;95.70
7606;DHT22;3844;53.360;9.738;2022-12-13T04:15:42;-6.80;95.70
7606;DHT22;3844;53.360;9.738;2022-12-13T04:17:48;-6.80;95.70
7606;DHT22;3844;53.360;9.738;2022-12-13T04:19:48;-6.80;95.70
7606;DHT22;3844;53.360;9.738;2022-12-13T04:21:50;-6.70;95.70
7606;DHT22;3844;53.360;9.738;2022-12-13T04:23:51;-6.70;95.70
7606;DHT22;3844;53.360;9.738;2022-12-13T04:25:52;-6.60;95.70
7606;DHT22;3844;53.360;9.738;2022-12-13T04:27:53;-6.60;95.70
7606;DHT22;3844;53.360;9.738;2022-12-13T04:29:53;-6.60;95.70
7606;DHT22;3844;53.360;9.738;2022-12-13T04:31:54;-6.50;95.70
7606;DHT22;3844;53.360;9.738;2022-12-13T04:33:55;-6.50;95.70
7606;DHT22;3844;53.360;9.738;2022-12-13T04:39:58;-6.40;95.70
7606;DHT22;3844;53.360;9.738;2022-12-13T04:44:01;-6.30;95.70
7606;DHT22;3844;53.360;9.738;2022-12-13T04:46:02;-6.30;95.70
7606;DHT22;3844;53.360;9.738;2022-12-13T04:48:03;-6.20;95.70
7606;DHT22;3844;53.360;9.738;2022-12-13T04:50:05;-6.20;95.70
7606;DHT22;3844;53.360;9.738;2022-12-13T04:52:06;-6.20;95.70
7606;DHT22;3844;53.360;9.738;2022-12-13T04:54:06;-6.10;95.70
7606;DHT22;3844;53.360;9.738;2022-12-13T04:56:07;-6.10;95.70
7606;DHT22;3844;53.360;9.738;2022-12-13T04:58:09;-6.10;95.70
7606;DHT22;3844;53.360;9.738;2022-12-13T05:00:11;-6.00;95.70
7606;DHT22;3844;53.360;9.738;2022-12-13T05:02:15;-6.00;95.70
7606;DHT22;3844;53.360;9.738;2022-12-13T05:04:16;-5.90;95.70
7606;DHT22;3844;53.360;9.738;2022-12-13T05:06:17;-5.90;95.70
7606;DHT22;3844;53.360;9.738;2022-12-13T05:08:18;-5.90;95.70
7606;DHT22;3844;53.360;9.738;2022-12-13T05:10:18;-5.80;95.70
7606;DHT22;3844;53.360;9.738;2022-12-13T05:12:19;-5.80;95.70
7606;DHT22;3844;53.360;9.738;2022-12-13T05:14:20;-5.80;95.70
7606;DHT22;3844;53.360;9.738;2022-12-13T05:16:20;-5.80;95.70
7606;DHT22;3844;53.360;9.738;2022-12-13T05:18:23;-5.80;95.70
7606;DHT22;3844;53.360;9.738;2022-12-13T05:20:24;-5.80;95.70
7606;DHT22;3844;53.360;9.738;2022-12-13T05:22:24;-5.80;95.70
7606;DHT22;3844;53.360;9.738;2022-12-13T05:24:26;-5.80;95.70
7606;DHT22;3844;53.360;9.738;2022-12-13T05:26:26;-5.70;95.70
7606;DHT22;3844;53.360;9.738;2022-12-13T05:28:28;-5.70;95.70
7606;DHT22;3844;53.360;9.738;2022-12-13T05:30:29;-5.60;95.70
7606;DHT22;3844;53.360;9.738;2022-12-13T05:32:33;-5.60;95.70
7606;DHT22;3844;53.360;9.738;2022-12-13T05:34:36;-5.60;95.70
7606;DHT22;3844;53.360;9.738;2022-12-13T05:36:36;-5.60;95.70
7606;DHT22;3844;53.360;9.738;2022-12-13T05:38:37;-5.60;95.70
7606;DHT22;3844;53.360;9.738;2022-12-13T05:40:38;-5.60;95.70
7606;DHT22;3844;53.360;9.738;2022-12-13T05:42:38;-5.70;95.70
7606;DHT22;3844;53.360;9.738;2022-12-13T05:44:39;-5.70;95.70
7606;DHT22;3844;53.360;9.738;2022-12-13T05:46:40;-5.70;95.70
7606;DHT22;3844;53.360;9.738;2022-12-13T05:48:40;-5.70;95.70
7606;DHT22;3844;53.360;9.738;2022-12-13T05:52:43;-5.80;95.70
7606;DHT22;3844;53.360;9.738;2022-12-13T05:54:43;-5.80;95.70
7606;DHT22;3844;53.360;9.738;2022-12-13T05:56:44;-5.80;95.70
7606;DHT22;3844;53.360;9.738;2022-12-13T05:58:45;-5.80;95.70
7606;DHT22;3844;53.360;9.738;2022-12-13T06:00:45;-5.70;95.70
7606;DHT22;3844;53.360;9.738;2022-12-13T06:02:47;-5.70;95.70
7606;DHT22;3844;53.360;9.738;2022-12-13T06:04:48;-5.70;95.70
7606;DHT22;3844;53.360;9.738;2022-12-13T06:06:49;-5.60;95.70
7606;DHT22;3844;53.360;9.738;2022-12-13T06:08:50;-5.60;95.70
7606;DHT22;3844;53.360;9.738;2022-12-13T06:10:55;-5.60;95.70
7606;DHT22;3844;53.360;9.738;2022-12-13T06:12:56;-5.60;95.70
7606;DHT22;3844;53.360;9.738;2022-12-13T06:14:57;-5.60;95.70
7606;DHT22;3844;53.360;9.738;2022-12-13T06:16:58;-5.60;95.70
7606;DHT22;3844;53.360;9.738;2022-12-13T06:18:58;-5.60;95.70
7606;DHT22;3844;53.360;9.738;2022-12-13T06:21:02;-5.50;95.70
7606;DHT22;3844;53.360;9.738;2022-12-13T06:23:03;-5.50;95.70
7606;DHT22;3844;53.360;9.738;2022-12-13T06:25:04;-5.50;95.70
7606;DHT22;3844;53.360;9.738;2022-12-13T06:27:05;-5.50;95.70
7606;DHT22;3844;53.360;9.738;2022-12-13T06:29:05;-5.60;95.70
7606;DHT22;3844;53.360;9.738;2022-12-13T06:31:06;-5.60;95.70
7606;DHT22;3844;53.360;9.738;2022-12-13T06:33:07;-5.60;95.70
7606;DHT22;3844;53.360;9.738;2022-12-13T06:35:08;-5.60;95.70
7606;DHT22;3844;53.360;9.738;2022-12-13T06:37:12;-5.70;95.70
7606;DHT22;3844;53.360;9.738;2022-12-13T06:39:12;-5.80;95.70
7606;DHT22;3844;53.360;9.738;2022-12-13T06:41:15;-5.80;95.70
7606;DHT22;3844;53.360;9.738;2022-12-13T06:43:18;-5.90;95.70
7606;DHT22;3844;53.360;9.738;2022-12-13T06:45:19;-5.90;95.70
7606;DHT22;3844;53.360;9.738;2022-12-13T06:47:19;-6.00;95.70
7606;DHT22;3844;53.360;9.738;2022-12-13T06:49:20;-6.00;95.70
7606;DHT22;3844;53.360;9.738;2022-12-13T06:51:21;-6.00;95.70
7606;DHT22;3844;53.360;9.738;2022-12-13T06:53:21;-6.10;95.70
7606;DHT22;3844;53.360;9.738;2022-12-13T06:57:25;-6.30;95.70
7606;DHT22;3844;53.360;9.738;2022-12-13T06:59:26;-6.30;95.70
7606;DHT22;3844;53.360;9.738;2022-12-13T07:01:26;-6.30;95.70
7606;DHT22;3844;53.360;9.738;2022-12-13T07:03:27;-6.40;95.70
7606;DHT22;3844;53.360;9.738;2022-12-13T07:05:29;-6.40;95.70
7606;DHT22;3844;53.360;9.738;2022-12-13T07:07:29;-6.50;95.70
7606;DHT22;3844;53.360;9.738;2022-12-13T07:09:30;-6.50;95.70
7606;DHT22;3844;53.360;9.738;2022-12-13T07:11:32;-6.50;95.70
7606;DHT22;3844;53.360;9.738;2022-12-13T07:13:33;-6.60;95.70
7606;DHT22;3844;53.360;9.738;2022-12-13T07:15:33;-6.60;95.70
7606;DHT22;3844;53.360;9.738;2022-12-13T07:17:34;-6.60;95.70
7606;DHT22;3844;53.360;9.738;2022-12-13T07:19:35;-6.50;95.70
7606;DHT22;3844;53.360;9.738;2022-12-13T07:21:35;-6.50;95.70
7606;DHT22;3844;53.360;9.738;2022-12-13T07:23:38;-6.50;95.70
7606;DHT22;3844;53.360;9.738;2022-12-13T07:25:39;-6.50;95.70
7606;DHT22;3844;53.360;9.738;2022-12-13T07:27:40;-6.60;95.70
7606;DHT22;3844;53.360;9.738;2022-12-13T07:31:42;-6.60;95.70
7606;DHT22;3844;53.360;9.738;2022-12-13T07:33:42;-6.60;95.70
7606;DHT22;3844;53.360;9.738;2022-12-13T07:35:43;-6.60;95.70
7606;DHT22;3844;53.360;9.738;2022-12-13T07:37:44;-6.70;95.70
7606;DHT22;3844;53.360;9.738;2022-12-13T07:39:45;-6.70;95.70
7606;DHT22;3844;53.360;9.738;2022-12-13T07:41:45;-6.70;95.70
7606;DHT22;3844;53.360;9.738;2022-12-13T07:43:46;-6.80;95.70
7606;DHT22;3844;53.360;9.738;2022-12-13T07:45:47;-6.80;95.70
7606;DHT22;3844;53.360;9.738;2022-12-13T07:47:48;-6.80;95.70
7606;DHT22;3844;53.360;9.738;2022-12-13T07:49:49;-6.80;95.70
7606;DHT22;3844;53.360;9.738;2022-12-13T07:51:49;-6.80;95.70
7606;DHT22;3844;53.360;9.738;2022-12-13T07:53:50;-6.90;95.70
7606;DHT22;3844;53.360;9.738;2022-12-13T07:57:52;-6.90;95.70
7606;DHT22;3844;53.360;9.738;2022-12-13T07:59:53;-6.90;95.70
7606;DHT22;3844;53.360;9.738;2022-12-13T08:01:53;-6.90;95.70
7606;DHT22;3844;53.360;9.738;2022-12-13T08:03:54;-6.80;95.70
7606;DHT22;3844;53.360;9.738;2022-12-13T08:06:00;-6.80;95.70
7606;DHT22;3844;53.360;9.738;2022-12-13T08:08:03;-6.80;95.70
7606;DHT22;3844;53.360;9.738;2022-12-13T08:10:03;-6.80;95.70
7606;DHT22;3844;53.360;9.738;2022-12-13T08:12:04;-6.80;95.70
7606;DHT22;3844;53.360;9.738;2022-12-13T08:16:09;-6.70;95.70
7606;DHT22;3844;53.360;9.738;2022-12-13T08:18:10;-6.70;95.70
7606;DHT22;3844;53.360;9.738;2022-12-13T08:20:11;-6.70;95.70
7606;DHT22;3844;53.360;9.738;2022-12-13T08:22:12;-6.70;95.70
7606;DHT22;3844;53.360;9.738;2022-12-13T08:24:13;-6.80;95.70
7606;DHT22;3844;53.360;9.738;2022-12-13T08:26:14;-6.70;95.70
7606;DHT22;3844;53.360;9.738;2022-12-13T08:28:15;-6.70;95.70
7606;DHT22;3844;53.360;9.738;2022-12-13T08:30:15;-6.70;95.70
7606;DHT22;3844;53.360;9.738;2022-12-13T08:32:16;-6.60;95.70
7606;DHT22;3844;53.360;9.738;2022-12-13T08:34:17;-6.60;95.70
7606;DHT22;3844;53.360;9.738;2022-12-13T08:36:18;-6.60;95.70
7606;DHT22;3844;53.360;9.738;2022-12-13T08:38:18;-6.50;95.70
7606;DHT22;3844;53.360;9.738;2022-12-13T08:40:19;-6.50;95.70
7606;DHT22;3844;53.360;9.738;2022-12-13T08:42:20;-6.40;95.70
7606;DHT22;3844;53.360;9.738;2022-12-13T08:44:21;-6.40;95.70
7606;DHT22;3844;53.360;9.738;2022-12-13T08:46:22;-6.30;95.70
7606;DHT22;3844;53.360;9.738;2022-12-13T08:48:22;-6.30;95.70
7606;DHT22;3844;53.360;9.738;2022-12-13T08:50:23;-6.20;95.70
7606;DHT22;3844;53.360;9.738;2022-12-13T08:52:24;-6.20;95.70
7606;DHT22;3844;53.360;9.738;2022-12-13T08:54:25;-6.20;95.70
7606;DHT22;3844;53.360;9.738;2022-12-13T08:56:25;-6.10;95.70
7606;DHT22;3844;53.360;9.738;2022-12-13T08:58:26;-6.10;95.70
7606;DHT22;3844;53.360;9.738;2022-12-13T09:00:27;-6.10;95.70
7606;DHT22;3844;53.360;9.738;2022-12-13T09:04:29;-6.10;95.70
7606;DHT22;3844;53.360;9.738;2022-12-13T09:06:30;-6.00;95.70
7606;DHT22;3844;53.360;9.738;2022-12-13T09:08:30;-6.00;95.70
7606;DHT22;3844;53.360;9.738;2022-12-13T09:10:31;-5.90;95.70
7606;DHT22;3844;53.360;9.738;2022-12-13T09:12:32;-5.90;95.70
7606;DHT22;3844;53.360;9.738;2022-12-13T09:14:32;-5.80;95.70
7606;DHT22;3844;53.360;9.738;2022-12-13T09:16:33;-5.80;95.70
7606;DHT22;3844;53.360;9.738;2022-12-13T09:18:35;-5.70;95.70
7606;DHT22;3844;53.360;9.738;2022-12-13T09:20:36;-5.70;95.70
7606;DHT22;3844;53.360;9.738;2022-12-13T09:22:37;-5.60;95.70
7606;DHT22;3844;53.360;9.738;2022-12-13T09:26:39;-5.50;95.70
7606;DHT22;3844;53.360;9.738;2022-12-13T09:28:41;-5.50;95.70
7606;DHT22;3844;53.360;9.738;2022-12-13T09:30:41;-5.40;95.70
7606;DHT22;3844;53.360;9.738;2022-12-13T09:32:42;-5.40;95.70
7606;DHT22;3844;53.360;9.738;2022-12-13T09:34:49;-5.30;95.70
7606;DHT22;3844;53.360;9.738;2022-12-13T09:36:50;-5.30;95.70
7606;DHT22;3844;53.360;9.738;2022-12-13T09:38:51;-5.20;95.70
7606;DHT22;3844;53.360;9.738;2022-12-13T09:40:52;-5.20;95.70
7606;DHT22;3844;53.360;9.738;2022-12-13T09:42:55;-5.10;95.70
7606;DHT22;3844;53.360;9.738;2022-12-13T09:45:02;-5.10;95.70
7606;DHT22;3844;53.360;9.738;2022-12-13T09:47:11;-5.00;95.70
7606;DHT22;3844;53.360;9.738;2022-12-13T09:49:25;-4.90;95.70
7606;DHT22;3844;53.360;9.738;2022-12-13T09:51:29;-4.80;95.70
7606;DHT22;3844;53.360;9.738;2022-12-13T09:53:32;-4.60;95.70
7606;DHT22;3844;53.360;9.738;2022-12-13T09:55:38;-4.50;95.70
7606;DHT22;3844;53.360;9.738;2022-12-13T09:57:38;-4.30;95.70
7606;DHT22;3844;53.360;9.738;2022-12-13T09:59:40;-4.10;95.70
7606;DHT22;3844;53.360;9.738;2022-12-13T10:01:41;-3.90;95.70
7606;DHT22;3844;53.360;9.738;2022-12-13T10:03:48;-3.70;95.70
7606;DHT22;3844;53.360;9.738;2022-12-13T10:06:17;-3.50;95.70
7606;DHT22;3844;53.360;9.738;2022-12-13T10:08:23;-3.30;95.70
7606;DHT22;3844;53.360;9.738;2022-12-13T10:10:24;-3.30;95.70
7606;DHT22;3844;53.360;9.738;2022-12-13T10:12:25;-3.00;95.70
7606;DHT22;3844;53.360;9.738;2022-12-13T10:14:31;-2.80;95.70
7606;DHT22;3844;53.360;9.738;2022-12-13T10:18:39;-2.60;95.70
7606;DHT22;3844;53.360;9.738;2022-12-13T10:20:40;-2.50;95.70
7606;DHT22;3844;53.360;9.738;2022-12-13T10:22:41;-2.40;95.70
7606;DHT22;3844;53.360;9.738;2022-12-13T10:24:59;-2.30;95.70
7606;DHT22;3844;53.360;9.738;2022-12-13T10:27:14;-2.10;95.70
7606;DHT22;3844;53.360;9.738;2022-12-13T10:29:16;-2.10;95.70
7606;DHT22;3844;53.360;9.738;2022-12-13T10:31:18;-2.00;95.70
7606;DHT22;3844;53.360;9.738;2022-12-13T10:33:24;-1.90;95.70
7606;DHT22;3844;53.360;9.738;2022-12-13T10:35:32;-1.90;95.70
7606;DHT22;3844;53.360;9.738;2022-12-13T10:37:35;-1.80;95.70
7606;DHT22;3844;53.360;9.738;2022-12-13T10:39:37;-1.70;95.70
7606;DHT22;3844;53.360;9.738;2022-12-13T10:41:39;-1.70;95.70
7606;DHT22;3844;53.360;9.738;2022-12-13T10:43:40;-1.70;95.70
7606;DHT22;3844;53.360;9.738;2022-12-13T10:45:42;-1.60;95.70
7606;DHT22;3844;53.360;9.738;2022-12-13T10:47:43;-1.60;95.70
7606;DHT22;3844;53.360;9.738;2022-12-13T10:51:52;-1.40;95.70
7606;DHT22;3844;53.360;9.738;2022-12-13T10:53:58;-1.30;95.70
7606;DHT22;3844;53.360;9.738;2022-12-13T10:56:00;-1.20;95.70
7606;DHT22;3844;53.360;9.738;2022-12-13T10:58:03;-1.10;95.70
7606;DHT22;3844;53.360;9.738;2022-12-13T11:00:44;-1.10;95.70
7606;DHT22;3844;53.360;9.738;2022-12-13T11:02:52;-1.10;95.70
7606;DHT22;3844;53.360;9.738;2022-12-13T11:04:54;-1.10;95.70
7606;DHT22;3844;53.360;9.738;2022-12-13T11:06:56;-1.10;95.70
7606;DHT22;3844;53.360;9.738;2022-12-13T11:08:57;-1.10;95.70
7606;DHT22;3844;53.360;9.738;2022-12-13T11:11:02;-1.20;95.70
7606;DHT22;3844;53.360;9.738;2022-12-13T11:13:06;-1.10;95.70
7606;DHT22;3844;53.360;9.738;2022-12-13T11:15:16;-1.10;95.70
7606;DHT22;3844;53.360;9.738;2022-12-13T11:17:21;-1.10;95.70
7606;DHT22;3844;53.360;9.738;2022-12-13T11:19:26;-1.00;95.70
7606;DHT22;3844;53.360;9.738;2022-12-13T11:21:32;-1.00;95.70
7606;DHT22;3844;53.360;9.738;2022-12-13T11:23:37;-1.00;95.70
7606;DHT22;3844;53.360;9.738;2022-12-13T11:25:40;-1.00;95.70
7606;DHT22;3844;53.360;9.738;2022-12-13T11:28:58;-1.00;95.70
7606;DHT22;3844;53.360;9.738;2022-12-13T11:33:04;-1.00;95.70
7606;DHT22;3844;53.360;9.738;2022-12-13T11:40:40;-0.90;95.70
7606;DHT22;3844;53.360;9.738;2022-12-13T11:42:34;-0.90;95.70
7606;DHT22;3844;53.360;9.738;2022-12-13T11:47:26;-0.90;95.70
7606;DHT22;3844;53.360;9.738;2022-12-13T11:49:43;-0.90;95.70
7606;DHT22;3844;53.360;9.738;2022-12-13T11:51:54;-0.90;95.70
7606;DHT22;3844;53.360;9.738;2022-12-13T11:54:08;-0.90;95.70
7606;DHT22;3844;53.360;9.738;2022-12-13T11:56:23;-0.90;95.70
7606;DHT22;3844;53.360;9.738;2022-12-13T12:00:56;-0.90;95.70
7606;DHT22;3844;53.360;9.738;2022-12-13T12:07:50;-0.90;95.70
7606;DHT22;3844;53.360;9.738;2022-12-13T12:12:33;-0.90;95.70
7606;DHT22;3844;53.360;9.738;2022-12-13T12:14:53;-0.90;95.70
7606;DHT22;3844;53.360;9.738;2022-12-13T12:16:59;-0.90;95.70
7606;DHT22;3844;53.360;9.738;2022-12-13T12:19:00;-1.00;95.70
7606;DHT22;3844;53.360;9.738;2022-12-13T12:21:49;-1.00;95.70
7606;DHT22;3844;53.360;9.738;2022-12-13T12:23:55;-1.00;95.70
7606;DHT22;3844;53.360;9.738;2022-12-13T12:26:15;-1.00;95.70
7606;DHT22;3844;53.360;9.738;2022-12-13T12:31:02;-0.90;95.70
7606;DHT22;3844;53.360;9.738;2022-12-13T12:35:36;-0.80;95.70
7606;DHT22;3844;53.360;9.738;2022-12-13T12:43:11;-0.90;95.70
7606;DHT22;3844;53.360;9.738;2022-12-13T12:59:03;-1.30;95.70
7606;DHT22;3844;53.360;9.738;2022-12-13T13:03:34;-1.40;95.70
7606;DHT22;3844;53.360;9.738;2022-12-13T13:05:48;-1.40;95.70
7606;DHT22;3844;53.360;9.738;2022-12-13T13:08:00;-1.40;95.70
7606;DHT22;3844;53.360;9.738;2022-12-13T13:10:04;-1.50;95.70
7606;DHT22;3844;53.360;9.738;2022-12-13T13:12:05;-1.50;95.70
7606;DHT22;3844;53.360;9.738;2022-12-13T13:16:35;-1.50;95.70
7606;DHT22;3844;53.360;9.738;2022-12-13T13:18:50;-1.60;95.70
7606;DHT22;3844;53.360;9.738;2022-12-13T13:21:24;-1.60;95.70
7606;DHT22;3844;53.360;9.738;2022-12-13T13:23:26;-1.70;95.70
7606;DHT22;3844;53.360;9.738;2022-12-13T13:27:32;-1.70;95.70
7606;DHT22;3844;53.360;9.738;2022-12-13T13:29:37;-1.70;95.70
7606;DHT22;3844;53.360;9.738;2022-12-13T13:34:24;-1.60;95.70
7606;DHT22;3844;53.360;9.738;2022-12-13T13:38:50;-1.70;95.70
7606;DHT22;3844;53.360;9.738;2022-12-13T13:40:51;-1.70;95.70
7606;DHT22;3844;53.360;9.738;2022-12-13T13:45:21;-1.70;95.70
7606;DHT22;3844;53.360;9.738;2022-12-13T13:49:23;-1.80;95.70
7606;DHT22;3844;53.360;9.738;2022-12-13T14:04:09;-2.10;95.70
7606;DHT22;3844;53.360;9.738;2022-12-13T14:23:19;-2.20;95.70
7606;DHT22;3844;53.360;9.738;2022-12-13T14:29:46;-2.30;95.70
7606;DHT22;3844;53.360;9.738;2022-12-13T14:31:48;-2.30;95.70
7606;DHT22;3844;53.360;9.738;2022-12-13T14:33:51;-2.30;95.70
7606;DHT22;3844;53.360;9.738;2022-12-13T14:35:58;-2.30;95.70
7606;DHT22;3844;53.360;9.738;2022-12-13T14:38:15;-2.30;95.70
7606;DHT22;3844;53.360;9.738;2022-12-13T14:44:31;-2.30;95.70
7606;DHT22;3844;53.360;9.738;2022-12-13T14:46:33;-2.30;95.70
7606;DHT22;3844;53.360;9.738;2022-12-13T14:48:42;-2.40;95.70
7606;DHT22;3844;53.360;9.738;2022-12-13T14:50:45;-2.40;95.70
7606;DHT22;3844;53.360;9.738;2022-12-13T14:52:47;-2.40;95.70
7606;DHT22;3844;53.360;9.738;2022-12-13T14:54:58;-2.40;95.70
7606;DHT22;3844;53.360;9.738;2022-12-13T14:57:01;-2.40;95.70
7606;DHT22;3844;53.360;9.738;2022-12-13T14:59:17;-2.40;95.70
7606;DHT22;3844;53.360;9.738;2022-12-13T15:01:24;-2.40;95.70
7606;DHT22;3844;53.360;9.738;2022-12-13T15:03:26;-2.50;95.70
7606;DHT22;3844;53.360;9.738;2022-12-13T15:05:41;-2.50;95.70
7606;DHT22;3844;53.360;9.738;2022-12-13T15:07:43;-2.50;95.70
7606;DHT22;3844;53.360;9.738;2022-12-13T15:09:45;-2.50;95.70
7606;DHT22;3844;53.360;9.738;2022-12-13T15:11:46;-2.50;95.70
7606;DHT22;3844;53.360;9.738;2022-12-13T15:13:48;-2.50;95.70
7606;DHT22;3844;53.360;9.738;2022-12-13T15:15:58;-2.60;95.70
7606;DHT22;3844;53.360;9.738;2022-12-13T15:18:19;-2.60;95.70
7606;DHT22;3844;53.360;9.738;2022-12-13T15:20:27;-2.60;95.70
7606;DHT22;3844;53.360;9.738;2022-12-13T15:22:29;-2.70;95.70
7606;DHT22;3844;53.360;9.738;2022-12-13T15:24:32;-2.70;95.70
7606;DHT22;3844;53.360;9.738;2022-12-13T15:26:33;-2.70;95.70
7606;DHT22;3844;53.360;9.738;2022-12-13T15:28:36;-2.80;95.70
7606;DHT22;3844;53.360;9.738;2022-12-13T15:30:39;-2.80;95.70
7606;DHT22;3844;53.360;9.738;2022-12-13T15:33:03;-2.80;95.70
7606;DHT22;3844;53.360;9.738;2022-12-13T15:35:16;-2.80;95.70
7606;DHT22;3844;53.360;9.738;2022-12-13T15:39:21;-2.80;95.70
7606;DHT22;3844;53.360;9.738;2022-12-13T15:43:37;-2.80;95.70
7606;DHT22;3844;53.360;9.738;2022-12-13T15:45:48;-2.80;95.70
7606;DHT22;3844;53.360;9.738;2022-12-13T15:47:51;-2.90;95.70
7606;DHT22;3844;53.360;9.738;2022-12-13T15:49:57;-2.90;95.70
7606;DHT22;3844;53.360;9.738;2022-12-13T15:52:45;-2.90;95.70
7606;DHT22;3844;53.360;9.738;2022-12-13T15:54:27;-2.90;95.70
7606;DHT22;3844;53.360;9.738;2022-12-13T15:58:59;-2.90;95.70
7606;DHT22;3844;53.360;9.738;2022-12-13T16:01:01;-2.90;95.70
7606;DHT22;3844;53.360;9.738;2022-12-13T16:03:10;-3.00;95.70
7606;DHT22;3844;53.360;9.738;2022-12-13T16:05:27;-2.90;95.70
7606;DHT22;3844;53.360;9.738;2022-12-13T16:07:33;-2.90;95.70
7606;DHT22;3844;53.360;9.738;2022-12-13T16:12:00;-3.00;95.70
7606;DHT22;3844;53.360;9.738;2022-12-13T16:16:31;-3.00;95.70
7606;DHT22;3844;53.360;9.738;2022-12-13T16:18:43;-3.00;95.70
7606;DHT22;3844;53.360;9.738;2022-12-13T16:20:44;-3.00;95.70
7606;DHT22;3844;53.360;9.738;2022-12-13T16:22:45;-3.00;95.70
7606;DHT22;3844;53.360;9.738;2022-12-13T16:24:47;-3.00;95.70